Startpagina
METAR-TAF:

METAR-TAF

Vliegvelden :

Pago Pago, Kleine afgelegen eilanden van de Verenigde Staten

breedte: 14-20S, lengte: 170-43W, hoogte: 3 m

Actueel weer

Dit bericht is 1 uur en het 13 minuten geleden gemaakt, om 08:50 UTC
Wind 2 kt uit variabele richting
Temperatuur 27°C
Vochtigheid 89%
Druk 1007 hPa
Zicht: 16.1 km
Verspreide wolken op 1800 ft
Gebroken wolken op 4000 ft
Geheel bewolkt op 10000 ft

METAR: NSTU 190850Z VRB02KT 10SM SCT018 BKN040 OVC100 27/25 A2974 RMK SLP071 8/47/ T02680248 53010

Tijdstip: 23:03 (10:03 UTC)

Verwachting

Dit bericht is 4 uur en het 43 minuten geleden gemaakt, om 05:20 UTC
Verwachting geldig van 19 om 06 UTC tot 20 om 06 UTC
Wind 6 kt uit variabele richting
Zicht: 10 km
Verspreide wolken op 1800 ft
Gebroken wolken op 4000 ft
buien in de omgeving

TAF: NSTU 190520Z 1906/2006 VRB06KT P6SM VCSH SCT018 BKN040

Waarnemingen en weersverwachtingen van meer dan 4000 vliegvelden (METAR en TAF).

De beschikbare stations zijn de gele en rode punten op de kaart.

Ga met uw muis naar het station om de naam te zien.

Klik dan om waarnemingen en weersverwachtingen te zien.

kaart wijzigen: klik op de groene knoppen met een zwart kruis om in te zoomen, op de groene knop met een streepje om uit te zoomen of op de groene pijlen voor aangrenzende kaarten.


METAR-TAF: